Time;durP1;ratioP1;P1;durP2;ratioP2;P2;SDS_P1;SDS_P2;PMS_P1;PMS_P2;Temp;Humidity;BMP_temperature;BMP_pressure;BME280_temperature;BME280_humidity;BME280_pressure;Samples;Min_cycle;Max_cycle;Signal;HPM_P1;HPM_P2
2022/07/24 00:00:17;;;;;;;3.47;2.30;;;26.00;60.80;;;;;;5094802;28;20079;-83
2022/07/24 00:02:43;;;;;;;3.80;2.28;;;26.00;60.90;;;;;;5094099;28;20021;-84
2022/07/24 00:05:09;;;;;;;3.00;2.42;;;26.00;61.10;;;;;;5094637;28;20123;-84
2022/07/24 00:07:35;;;;;;;3.70;2.40;;;26.00;61.20;;;;;;5094000;28;20086;-83
2022/07/24 00:10:02;;;;;;;4.72;2.40;;;26.00;61.20;;;;;;5093744;28;20468;-83
2022/07/24 00:12:28;;;;;;;2.97;2.35;;;26.00;61.20;;;;;;5094532;28;20028;-83
2022/07/24 00:14:53;;;;;;;3.40;2.22;;;26.00;61.40;;;;;;5094283;28;20068;-83
2022/07/24 00:17:19;;;;;;;5.18;2.78;;;25.90;61.50;;;;;;5093118;28;20464;-83
2022/07/24 00:19:45;;;;;;;4.00;2.30;;;25.90;61.80;;;;;;5094034;28;20024;-83
2022/07/24 00:22:10;;;;;;;2.97;2.15;;;25.90;62.10;;;;;;5092978;28;20456;-83
2022/07/24 00:24:36;;;;;;;2.25;2.05;;;25.80;62.40;;;;;;5095011;28;20031;-81
2022/07/24 00:27:02;;;;;;;4.50;2.50;;;25.80;62.40;;;;;;5095349;28;20031;-83
2022/07/24 00:29:28;;;;;;;6.70;2.40;;;25.70;62.70;;;;;;5093910;28;20106;-84
2022/07/24 00:31:54;;;;;;;3.85;2.33;;;25.70;63.00;;;;;;5092650;28;20455;-84
2022/07/24 00:34:19;;;;;;;3.97;3.08;;;25.70;63.30;;;;;;5094097;28;20034;-84
2022/07/24 00:36:45;;;;;;;2.95;2.65;;;25.60;63.50;;;;;;5094047;28;20100;-85
2022/07/24 00:39:11;;;;;;;5.13;2.33;;;25.60;63.40;;;;;;5093899;28;20028;-85
2022/07/24 00:41:37;;;;;;;2.60;2.40;;;25.60;63.50;;;;;;5093445;28;20024;-80
2022/07/24 00:44:05;;;;;;;3.13;2.50;;;25.60;63.60;;;;;;5093540;28;20073;-85
2022/07/24 00:46:33;;;;;;;3.47;2.58;;;25.60;63.70;;;;;;5094054;28;20024;-83
2022/07/24 00:48:58;;;;;;;2.95;2.40;;;25.50;63.70;;;;;;5093618;28;20028;-84
2022/07/24 00:51:24;;;;;;;3.88;2.88;;;25.50;63.90;;;;;;5093733;28;20357;-84
2022/07/24 00:53:50;;;;;;;4.68;2.35;;;25.50;63.90;;;;;;5092984;28;20028;-84
2022/07/24 00:56:16;;;;;;;3.80;2.67;;;25.50;64.10;;;;;;5093900;28;20473;-84
2022/07/24 00:58:41;;;;;;;2.65;2.15;;;25.50;64.10;;;;;;5093390;28;20024;-84
2022/07/24 01:01:07;;;;;;;3.33;2.22;;;25.50;64.40;;;;;;5093712;28;20029;-84
2022/07/24 01:03:33;;;;;;;3.30;3.00;;;25.50;64.50;;;;;;5093244;28;20032;-85
2022/07/24 01:05:58;;;;;;;3.97;2.65;;;25.50;64.60;;;;;;5092932;28;20032;-84
2022/07/24 01:08:25;;;;;;;3.88;2.92;;;25.50;64.70;;;;;;5093534;28;20032;-84
2022/07/24 01:10:51;;;;;;;2.90;2.53;;;25.50;64.80;;;;;;5092871;28;20451;-84
2022/07/24 01:13:17;;;;;;;3.13;2.33;;;25.50;64.90;;;;;;5093190;28;20031;-84
2022/07/24 01:15:42;;;;;;;3.15;2.80;;;25.40;65.10;;;;;;5093251;28;20024;-83
2022/07/24 01:18:08;;;;;;;3.45;2.22;;;25.40;65.40;;;;;;5093251;28;20052;-84
2022/07/24 01:20:38;;;;;;;3.20;2.58;;;25.40;65.40;;;;;;5093375;28;20555;-84
2022/07/24 01:23:04;;;;;;;4.10;2.55;;;25.30;65.70;;;;;;5093030;28;20102;-84
2022/07/24 01:25:30;;;;;;;3.67;2.75;;;25.30;65.80;;;;;;5093532;28;20111;-85
2022/07/24 01:27:55;;;;;;;3.08;2.65;;;25.30;66.00;;;;;;5093010;28;20088;-84
2022/07/24 01:30:21;;;;;;;4.05;2.80;;;25.30;66.20;;;;;;5092775;28;20060;-84
2022/07/24 01:32:47;;;;;;;3.05;2.63;;;25.20;66.40;;;;;;5092738;28;20027;-84
2022/07/24 01:35:13;;;;;;;3.35;2.72;;;25.20;66.60;;;;;;5092986;28;20384;-85
2022/07/24 01:37:38;;;;;;;2.97;2.67;;;25.20;66.70;;;;;;5093409;28;20257;-84
2022/07/24 01:40:04;;;;;;;2.70;2.42;;;25.20;66.60;;;;;;5092898;28;20032;-84
2022/07/24 01:42:30;;;;;;;5.03;2.90;;;25.20;67.00;;;;;;5092973;28;20524;-84
2022/07/24 01:44:56;;;;;;;5.55;3.25;;;25.20;67.50;;;;;;5092623;28;20126;-84
2022/07/24 01:47:21;;;;;;;5.10;2.70;;;25.10;67.70;;;;;;5093001;28;20120;-84
2022/07/24 01:49:47;;;;;;;3.08;2.78;;;25.10;67.90;;;;;;5092688;28;20027;-84
2022/07/24 01:52:13;;;;;;;3.15;2.85;;;25.10;68.10;;;;;;5092887;28;20020;-84
2022/07/24 01:54:38;;;;;;;2.85;2.55;;;25.10;68.70;;;;;;5093152;28;20572;-83
2022/07/24 01:57:04;;;;;;;4.15;3.35;;;25.10;68.60;;;;;;5092594;28;20426;-83
2022/07/24 01:59:30;;;;;;;6.90;3.28;;;25.00;68.70;;;;;;5091931;28;20032;-83
2022/07/24 02:01:55;;;;;;;3.75;3.00;;;25.00;69.20;;;;;;5092398;28;20060;-84
2022/07/24 02:04:21;;;;;;;4.53;3.15;;;25.00;69.40;;;;;;5092596;28;20024;-83
2022/07/24 02:06:47;;;;;;;3.40;3.10;;;24.90;70.30;;;;;;5092552;28;20111;-83
2022/07/24 02:09:13;;;;;;;4.45;3.00;;;24.90;71.20;;;;;;5092782;28;20024;-83
2022/07/24 02:11:38;;;;;;;5.28;3.60;;;24.80;70.50;;;;;;5092280;28;20020;-83
2022/07/24 02:14:05;;;;;;;3.92;3.45;;;24.80;71.50;;;;;;5093070;28;20103;-83
2022/07/24 02:16:31;;;;;;;5.88;3.58;;;24.70;71.80;;;;;;5092838;28;20115;-84
2022/07/24 02:18:57;;;;;;;5.38;4.13;;;24.70;72.10;;;;;;5091170;28;20060;-84
2022/07/24 02:21:22;;;;;;;3.63;3.13;;;24.70;72.70;;;;;;5092409;28;20456;-84
2022/07/24 02:23:48;;;;;;;3.92;3.35;;;24.60;72.90;;;;;;5091057;28;20043;-84
2022/07/24 02:26:13;;;;;;;6.43;3.70;;;24.60;73.30;;;;;;5092869;28;20570;-85
2022/07/24 02:28:39;;;;;;;4.88;3.60;;;24.60;73.40;;;;;;5092344;28;20079;-84
2022/07/24 02:31:05;;;;;;;5.43;3.72;;;24.60;73.80;;;;;;5092176;28;20039;-85
2022/07/24 02:33:31;;;;;;;4.65;3.65;;;24.50;73.80;;;;;;5093955;28;20036;-84
2022/07/24 02:35:56;;;;;;;4.75;3.70;;;24.50;74.10;;;;;;5096944;28;20028;-85
2022/07/24 02:38:22;;;;;;;5.60;4.13;;;24.50;74.40;;;;;;5096008;28;20026;-84
2022/07/24 02:40:48;;;;;;;6.40;4.05;;;24.50;74.60;;;;;;5094487;28;20114;-83
2022/07/24 02:43:13;;;;;;;4.85;3.92;;;24.50;74.90;;;;;;5096137;28;20032;-84
2022/07/24 02:45:39;;;;;;;5.35;4.03;;;24.40;75.10;;;;;;5096254;28;20035;-84
2022/07/24 02:48:05;;;;;;;4.30;3.78;;;24.40;75.20;;;;;;5095245;28;20032;-84
2022/07/24 02:50:35;;;;;;;4.53;3.65;;;24.40;75.60;;;;;;5096281;28;20028;-84
2022/07/24 02:53:01;;;;;;;5.00;3.63;;;24.40;75.50;;;;;;5095336;28;20028;-84
2022/07/24 02:55:28;;;;;;;4.82;4.32;;;24.30;75.90;;;;;;5095775;28;20422;-84
2022/07/24 02:57:55;;;;;;;5.22;3.53;;;24.30;76.20;;;;;;5095410;28;20023;-84
2022/07/24 03:00:22;;;;;;;4.78;4.18;;;24.30;76.40;;;;;;5095663;28;20456;-84
2022/07/24 03:02:47;;;;;;;4.80;3.72;;;24.30;76.70;;;;;;5095258;28;20024;-83
2022/07/24 03:05:13;;;;;;;5.75;3.95;;;24.20;76.80;;;;;;5095807;28;20306;-83
2022/07/24 03:07:40;;;;;;;6.40;3.88;;;24.20;77.30;;;;;;5095570;28;20106;-83
2022/07/24 03:10:08;;;;;;;4.70;3.78;;;24.10;77.70;;;;;;5094947;28;20085;-84
2022/07/24 03:12:34;;;;;;;5.63;3.95;;;24.10;77.80;;;;;;5095677;28;20031;-83
2022/07/24 03:14:59;;;;;;;5.63;4.38;;;24.10;78.10;;;;;;5094697;28;20036;-83
2022/07/24 03:17:25;;;;;;;7.28;4.68;;;24.00;78.20;;;;;;5095328;28;20061;-83
2022/07/24 03:19:51;;;;;;;4.82;4.05;;;23.90;78.50;;;;;;5094818;28;20478;-83
2022/07/24 03:22:16;;;;;;;5.50;3.90;;;23.90;78.80;;;;;;5095011;28;20032;-83
2022/07/24 03:24:42;;;;;;;7.53;4.05;;;23.80;79.40;;;;;;5094886;28;20032;-84
2022/07/24 03:27:08;;;;;;;5.78;4.40;;;23.80;79.80;;;;;;5094914;28;20241;-83
2022/07/24 03:29:33;;;;;;;5.50;4.53;;;23.70;80.00;;;;;;5127743;27;20131;-83
2022/07/24 03:31:59;;;;;;;8.23;4.10;;;23.70;80.40;;;;;;5094889;28;20036;-83
2022/07/24 03:34:25;;;;;;;5.00;4.10;;;23.70;80.60;;;;;;5095042;28;20039;-83
2022/07/24 03:36:51;;;;;;;4.90;4.40;;;23.70;80.80;;;;;;5094944;28;20070;-81
2022/07/24 03:39:17;;;;;;;7.53;4.03;;;23.60;80.90;;;;;;5094542;28;20031;-83
2022/07/24 03:41:42;;;;;;;4.88;3.85;;;23.60;81.00;;;;;;5094792;28;20097;-84
2022/07/24 03:44:08;;;;;;;4.85;3.78;;;23.60;80.90;;;;;;5094433;28;20460;-83
2022/07/24 03:46:34;;;;;;;5.25;4.10;;;23.60;80.90;;;;;;5093725;28;20032;-83
2022/07/24 03:49:00;;;;;;;6.18;3.72;;;23.70;81.00;;;;;;5094267;28;20028;-84
2022/07/24 03:51:26;;;;;;;5.85;4.30;;;23.60;80.90;;;;;;5094666;28;20028;-83
2022/07/24 03:53:52;;;;;;;4.85;4.20;;;23.60;80.80;;;;;;5094015;28;20111;-82
2022/07/24 03:56:18;;;;;;;6.55;4.47;;;23.60;80.70;;;;;;5094395;28;20028;-83
2022/07/24 03:58:44;;;;;;;5.30;4.05;;;23.60;80.60;;;;;;5094735;28;20024;-83
2022/07/24 04:01:10;;;;;;;5.93;3.88;;;23.60;80.60;;;;;;5093829;28;20396;-83
2022/07/24 04:03:36;;;;;;;5.40;4.00;;;23.60;80.80;;;;;;5093502;28;20039;-84
2022/07/24 04:06:03;;;;;;;5.15;4.15;;;23.60;80.70;;;;;;5094038;28;20460;-84
2022/07/24 04:08:28;;;;;;;4.95;3.75;;;23.60;80.50;;;;;;5094372;28;20027;-84
2022/07/24 04:10:56;;;;;;;6.03;4.38;;;23.60;80.60;;;;;;5093954;28;20376;-83
2022/07/24 04:13:27;;;;;;;7.80;4.15;;;23.60;80.80;;;;;;5094239;28;20035;-84
2022/07/24 04:15:53;;;;;;;5.47;4.70;;;23.50;81.00;;;;;;5093946;28;20077;-81
2022/07/24 04:18:19;;;;;;;5.43;4.43;;;23.50;81.70;;;;;;5092945;28;20028;-83
2022/07/24 04:20:45;;;;;;;4.57;3.85;;;23.50;81.90;;;;;;5093756;28;20400;-82
2022/07/24 04:23:10;;;;;;;8.40;4.82;;;23.50;82.50;;;;;;5093203;28;20073;-81
2022/07/24 04:25:36;;;;;;;5.50;4.18;;;23.50;82.10;;;;;;5093656;28;20028;-82
2022/07/24 04:28:02;;;;;;;7.82;4.20;;;23.40;81.70;;;;;;5093336;28;20081;-82
2022/07/24 04:30:28;;;;;;;6.88;4.70;;;23.50;81.70;;;;;;5093377;28;20051;-82
2022/07/24 04:32:53;;;;;;;4.57;3.80;;;23.50;81.30;;;;;;5093581;28;20422;-81
2022/07/24 04:35:19;;;;;;;5.03;4.38;;;23.50;81.30;;;;;;5093666;28;20028;-83
2022/07/24 04:37:45;;;;;;;5.65;3.95;;;23.50;80.90;;;;;;5093922;28;20365;-83
2022/07/24 04:40:12;;;;;;;5.65;4.07;;;23.50;80.70;;;;;;5093017;28;20392;-83
2022/07/24 04:42:38;;;;;;;5.28;4.00;;;23.60;80.30;;;;;;5094045;28;20055;-83
2022/07/24 04:45:05;;;;;;;4.70;3.70;;;23.60;80.50;;;;;;5094984;28;20036;-83
2022/07/24 04:47:31;;;;;;;6.07;4.07;;;23.70;80.30;;;;;;5093727;28;20044;-83
2022/07/24 04:49:56;;;;;;;5.53;3.83;;;23.80;79.70;;;;;;5093298;28;20028;-82
2022/07/24 04:52:22;;;;;;;4.28;3.85;;;24.00;79.30;;;;;;5092354;28;20028;-83
2022/07/24 04:54:48;;;;;;;5.70;4.30;;;24.00;78.70;;;;;;5093625;28;20085;-83
2022/07/24 04:57:14;;;;;;;5.60;4.22;;;24.20;78.10;;;;;;5091511;28;20028;-84
2022/07/24 04:59:39;;;;;;;4.80;3.78;;;24.30;76.40;;;;;;5093757;28;20028;-83
2022/07/24 05:02:05;;;;;;;6.00;4.43;;;24.40;76.00;;;;;;5093224;28;20055;-86
2022/07/24 05:04:31;;;;;;;5.07;3.95;;;24.50;75.30;;;;;;5093404;28;20032;-83
2022/07/24 05:06:56;;;;;;;5.20;3.90;;;24.50;75.00;;;;;;5093173;28;20032;-83
2022/07/24 05:09:22;;;;;;;3.97;3.20;;;24.60;74.70;;;;;;5093120;28;20039;-83
2022/07/24 05:11:48;;;;;;;4.13;3.60;;;24.70;73.80;;;;;;5093295;28;20114;-83
2022/07/24 05:14:13;;;;;;;4.90;3.70;;;24.70;72.80;;;;;;5092883;28;20082;-83
2022/07/24 05:16:39;;;;;;;6.15;3.75;;;24.70;71.90;;;;;;5093130;28;20035;-84
2022/07/24 05:19:05;;;;;;;3.80;3.40;;;24.80;71.70;;;;;;5092887;28;20046;-84
2022/07/24 05:21:31;;;;;;;5.97;3.95;;;24.80;70.20;;;;;;5093255;28;20024;-84
2022/07/24 05:23:58;;;;;;;4.13;3.15;;;24.90;69.80;;;;;;5092597;28;20032;-82
2022/07/24 05:26:23;;;;;;;5.78;3.53;;;24.90;66.90;;;;;;5092038;28;20028;-84
2022/07/24 05:28:49;;;;;;;7.20;3.78;;;25.10;67.20;;;;;;5093028;28;20048;-84
2022/07/24 05:31:14;;;;;;;4.35;3.42;;;25.20;64.60;;;;;;5092949;28;20161;-84
2022/07/24 05:33:40;;;;;;;3.65;3.05;;;25.20;63.70;;;;;;5093265;28;20483;-84
2022/07/24 05:36:06;;;;;;;3.10;2.80;;;25.40;64.10;;;;;;5092791;28;20103;-84
2022/07/24 05:38:32;;;;;;;4.00;2.97;;;25.50;63.80;;;;;;5093319;28;20028;-83
2022/07/24 05:40:57;;;;;;;4.07;3.28;;;25.60;62.50;;;;;;5095642;28;20024;-84
2022/07/24 05:43:23;;;;;;;3.78;3.25;;;25.60;62.30;;;;;;5093612;28;20024;-83
2022/07/24 05:45:49;;;;;;;4.57;3.33;;;25.80;62.60;;;;;;5091815;28;20062;-83
2022/07/24 05:48:14;;;;;;;4.13;2.92;;;26.00;61.50;;;;;;5092252;28;20073;-84
2022/07/24 05:50:40;;;;;;;6.25;3.15;;;26.20;60.70;;;;;;5092567;28;20024;-84
2022/07/24 05:53:06;;;;;;;4.18;2.80;;;26.40;59.90;;;;;;5092435;28;20037;-84
2022/07/24 05:55:31;;;;;;;4.20;2.88;;;26.50;59.40;;;;;;5092952;28;20024;-85
2022/07/24 05:57:57;;;;;;;5.25;3.30;;;26.70;59.60;;;;;;5092952;28;20027;-83
2022/07/24 06:00:23;;;;;;;4.25;3.10;;;27.00;58.80;;;;;;5092977;28;20028;-84
2022/07/24 06:02:48;;;;;;;3.33;2.88;;;27.20;58.10;;;;;;5093267;28;20024;-84
2022/07/24 06:05:15;;;;;;;5.47;3.05;;;27.40;57.60;;;;;;5092169;28;20035;-84
2022/07/24 06:07:44;;;;;;;4.63;3.33;;;27.70;57.10;;;;;;5092658;28;20153;-85
2022/07/24 06:10:10;;;;;;;4.05;3.10;;;28.00;56.20;;;;;;5095809;28;20032;-85
2022/07/24 06:12:35;;;;;;;4.68;3.53;;;28.20;55.20;;;;;;5096626;28;20439;-87
2022/07/24 06:15:01;;;;;;;3.70;2.97;;;28.40;54.20;;;;;;5094962;28;20123;-83
2022/07/24 06:17:27;;;;;;;4.18;3.35;;;28.60;54.30;;;;;;5096540;28;20064;-85
2022/07/24 06:19:52;;;;;;;3.33;3.03;;;28.80;53.90;;;;;;5096628;28;20024;-86
2022/07/24 06:22:18;;;;;;;3.20;2.90;;;29.00;53.20;;;;;;5094827;28;20055;-84
2022/07/24 06:24:43;;;;;;;4.68;3.10;;;29.20;53.00;;;;;;5096193;28;20383;-86
2022/07/24 06:27:09;;;;;;;4.65;2.97;;;29.20;52.70;;;;;;5094830;28;20034;-85
2022/07/24 06:29:35;;;;;;;3.05;2.75;;;29.30;53.00;;;;;;5096176;28;20127;-86
2022/07/24 06:32:00;;;;;;;3.67;3.10;;;29.50;52.50;;;;;;5096357;28;20453;-85
2022/07/24 06:34:26;;;;;;;7.05;3.10;;;29.60;52.40;;;;;;5095915;28;20032;-85
2022/07/24 06:36:53;;;;;;;3.60;2.97;;;29.80;51.90;;;;;;5096405;28;20070;-86
2022/07/24 06:39:19;;;;;;;3.70;3.10;;;29.90;51.20;;;;;;5095537;28;20020;-85
2022/07/24 06:41:44;;;;;;;5.40;3.08;;;29.90;51.40;;;;;;5096073;28;20052;-86
2022/07/24 06:44:10;;;;;;;3.00;2.63;;;30.10;50.20;;;;;;5094448;28;20032;-85
2022/07/24 06:46:36;;;;;;;4.07;3.35;;;30.20;49.50;;;;;;5094946;28;20032;-85
2022/07/24 06:49:01;;;;;;;4.60;3.35;;;30.40;48.30;;;;;;5096424;28;20444;-85
2022/07/24 06:51:27;;;;;;;3.33;2.67;;;30.60;47.30;;;;;;5095611;28;20422;-84
2022/07/24 06:53:53;;;;;;;3.83;2.60;;;30.90;46.70;;;;;;5103434;28;20031;-84
2022/07/24 06:56:18;;;;;;;3.13;2.50;;;31.30;46.60;;;;;;5096941;28;20050;-85
2022/07/24 06:58:44;;;;;;;4.43;2.50;;;31.80;45.20;;;;;;5096097;28;20031;-84
2022/07/24 07:01:10;;;;;;;2.30;2.10;;;32.10;44.00;;;;;;5095656;28;20031;-85
2022/07/24 07:03:35;;;;;;;3.55;2.70;;;32.30;43.60;;;;;;5095678;28;20471;-86
2022/07/24 07:06:01;;;;;;;3.33;2.45;;;32.40;42.10;;;;;;5095846;28;20024;-86
2022/07/24 07:08:27;;;;;;;4.32;2.67;;;32.80;41.30;;;;;;5095167;28;20049;-86
2022/07/24 07:10:52;;;;;;;2.47;2.25;;;32.60;41.00;;;;;;5094408;28;20388;-86
2022/07/24 07:13:18;;;;;;;2.33;2.13;;;33.00;40.90;;;;;;5094107;28;20028;-87
2022/07/24 07:15:44;;;;;;;3.22;2.30;;;33.10;40.70;;;;;;5095947;28;20443;-86
2022/07/24 07:18:09;;;;;;;3.42;2.58;;;32.80;41.10;;;;;;5095266;28;20028;-86
2022/07/24 07:20:35;;;;;;;3.10;2.20;;;32.80;40.90;;;;;;5095810;28;20028;-86
2022/07/24 07:23:00;;;;;;;2.80;2.15;;;32.80;40.00;;;;;;5095518;28;20028;-87
2022/07/24 07:25:26;;;;;;;2.28;2.08;;;32.80;40.00;;;;;;5094957;28;20043;-87
2022/07/24 07:27:52;;;;;;;2.25;2.05;;;33.10;39.80;;;;;;5095156;28;20069;-86
2022/07/24 07:30:17;;;;;;;4.50;2.50;;;33.00;39.80;;;;;;5094834;28;20051;-86
2022/07/24 07:32:43;;;;;;;4.63;2.30;;;32.90;39.50;;;;;;5095460;28;20035;-86
2022/07/24 07:35:09;;;;;;;2.25;2.05;;;32.80;40.10;;;;;;5095110;28;20047;-85
2022/07/24 07:37:35;;;;;;;2.58;2.03;;;33.00;39.40;;;;;;5094139;28;20444;-86
2022/07/24 07:40:01;;;;;;;3.67;2.70;;;32.90;40.10;;;;;;5095169;28;20472;-86
2022/07/24 07:42:27;;;;;;;3.10;1.98;;;32.80;39.80;;;;;;5094723;28;20028;-86
2022/07/24 07:44:52;;;;;;;2.20;2.03;;;32.90;39.80;;;;;;5095144;28;20058;-85
2022/07/24 07:47:18;;;;;;;2.78;2.20;;;33.00;39.80;;;;;;5094750;28;20024;-86
2022/07/24 07:49:44;;;;;;;2.35;1.88;;;33.20;39.50;;;;;;5095345;28;20032;-86
2022/07/24 07:52:09;;;;;;;2.38;1.77;;;33.50;38.90;;;;;;5094871;28;20028;-86
2022/07/24 07:54:35;;;;;;;2.45;1.92;;;33.50;39.00;;;;;;5095523;28;20350;-87
2022/07/24 07:57:01;;;;;;;1.80;1.70;;;33.30;38.50;;;;;;5094495;28;20424;-86
2022/07/24 07:59:26;;;;;;;2.55;1.92;;;33.50;39.00;;;;;;5094141;28;20119;-87
2022/07/24 08:01:52;;;;;;;2.80;2.28;;;33.70;36.20;;;;;;5094530;28;20035;-87
2022/07/24 08:04:18;;;;;;;1.80;1.50;;;33.90;35.70;;;;;;5094259;28;20480;-87
2022/07/24 08:06:43;;;;;;;2.20;1.90;;;33.80;36.00;;;;;;5094750;28;20457;-87
2022/07/24 08:09:09;;;;;;;1.90;1.80;;;34.00;35.80;;;;;;5094117;28;20460;-84
2022/07/24 08:11:35;;;;;;;2.85;1.70;;;34.10;34.50;;;;;;5094165;28;20024;-86
2022/07/24 08:14:00;;;;;;;2.50;2.10;;;34.40;33.90;;;;;;5094252;28;20133;-86
2022/07/24 08:16:26;;;;;;;1.83;1.70;;;34.80;34.10;;;;;;5094170;28;20023;-86
2022/07/24 08:18:52;;;;;;;2.60;2.00;;;35.20;32.70;;;;;;5094308;28;20024;-87
2022/07/24 08:21:18;;;;;;;2.30;1.90;;;35.80;32.40;;;;;;5094201;28;20032;-85
2022/07/24 08:23:45;;;;;;;1.58;1.48;;;36.10;32.50;;;;;;5093255;28;20472;-86
2022/07/24 08:26:11;;;;;;;2.97;1.92;;;36.90;32.30;;;;;;5093828;28;20075;-84
2022/07/24 08:28:37;;;;;;;1.85;1.60;;;37.50;31.20;;;;;;5093204;28;20089;-86
2022/07/24 08:31:02;;;;;;;1.95;1.67;;;37.90;30.80;;;;;;5093991;28;20415;-86
2022/07/24 08:33:28;;;;;;;2.20;1.67;;;37.90;30.50;;;;;;5093155;28;20023;-86
2022/07/24 08:35:54;;;;;;;2.15;1.45;;;38.00;29.80;;;;;;5094349;28;20028;-86
2022/07/24 08:38:20;;;;;;;4.20;1.77;;;38.60;30.30;;;;;;5093675;28;20070;-84
2022/07/24 08:40:46;;;;;;;2.90;1.95;;;38.80;30.50;;;;;;5092711;28;20020;-84
2022/07/24 08:43:11;;;;;;;2.20;1.80;;;39.10;30.40;;;;;;5093813;28;20031;-81
2022/07/24 08:45:42;;;;;;;1.90;1.67;;;39.00;30.30;;;;;;5094033;28;20475;-86
2022/07/24 08:48:09;;;;;;;3.97;1.83;;;38.70;29.80;;;;;;5093631;28;20020;-86
2022/07/24 08:50:37;;;;;;;2.55;1.85;;;38.50;29.90;;;;;;5093410;28;20046;-86
2022/07/24 08:53:04;;;;;;;1.85;1.70;;;38.10;30.10;;;;;;5093758;28;20065;-85
2022/07/24 08:55:30;;;;;;;1.88;1.60;;;37.80;29.90;;;;;;5093399;28;20039;-85
2022/07/24 08:57:57;;;;;;;1.63;1.52;;;37.20;30.00;;;;;;5093028;28;20373;-85
2022/07/24 09:00:24;;;;;;;3.55;1.90;;;36.90;29.90;;;;;;5094305;28;20020;-85
2022/07/24 09:02:49;;;;;;;2.00;1.65;;;36.00;30.70;;;;;;5094633;28;20116;-85
2022/07/24 09:05:15;;;;;;;1.67;1.45;;;35.30;31.20;;;;;;5100753;28;20468;-84
2022/07/24 09:07:41;;;;;;;2.17;1.60;;;34.80;31.80;;;;;;5094381;28;20028;-85
2022/07/24 09:10:12;;;;;;;1.50;1.40;;;34.50;32.00;;;;;;5093636;28;20028;-85
2022/07/24 09:12:45;;;;;;;1.88;1.40;;;34.00;31.30;;;;;;5094029;28;20028;-86
2022/07/24 09:15:18;;;;;;;1.60;1.50;;;33.40;30.80;;;;;;5093950;28;20028;-85
2022/07/24 09:17:58;;;;;;;1.35;1.13;;;32.80;31.00;;;;;;5093672;28;20126;-85
2022/07/24 09:20:27;;;;;;;1.90;1.60;;;32.40;31.50;;;;;;5093587;28;20031;-85
2022/07/24 09:22:53;;;;;;;1.23;1.13;;;32.00;32.40;;;;;;5093709;28;20024;-85
2022/07/24 09:25:27;;;;;;;1.67;1.40;;;31.70;33.10;;;;;;5093102;28;20483;-86
2022/07/24 09:27:58;;;;;;;1.50;1.40;;;31.50;33.60;;;;;;5093686;28;20379;-85
2022/07/24 09:30:42;;;;;;;1.75;1.52;;;31.60;34.30;;;;;;5093105;28;20055;-85
2022/07/24 09:33:16;;;;;;;1.90;1.70;;;31.60;34.50;;;;;;5093601;28;20107;-86
2022/07/24 09:35:45;;;;;;;1.63;1.40;;;31.60;34.80;;;;;;5093573;28;20073;-86
2022/07/24 09:38:14;;;;;;;3.70;1.50;;;31.60;35.70;;;;;;5093758;28;20028;-84
2022/07/24 09:40:42;;;;;;;3.45;1.73;;;31.70;35.40;;;;;;5093595;28;20020;-85
2022/07/24 09:43:15;;;;;;;2.10;1.70;;;31.70;35.20;;;;;;5095102;28;20020;-85
2022/07/24 09:46:00;;;;;;;1.52;1.42;;;31.60;35.70;;;;;;5096267;28;20028;-84
2022/07/24 09:48:33;;;;;;;1.85;1.65;;;31.40;35.80;;;;;;5097587;28;20085;-84
2022/07/24 09:51:22;;;;;;;1.70;1.40;;;31.30;35.40;;;;;;5097402;28;20464;-84
2022/07/24 09:53:59;;;;;;;3.13;1.67;;;31.20;35.80;;;;;;5097021;28;20403;-84
2022/07/24 09:56:25;;;;;;;2.25;2.05;;;31.00;35.90;;;;;;5096315;28;20392;-84
2022/07/24 09:58:55;;;;;;;2.03;1.50;;;30.80;36.10;;;;;;5097090;28;20039;-83
2022/07/24 10:01:23;;;;;;;2.05;1.70;;;30.80;36.00;;;;;;5096824;28;20074;-83
2022/07/24 10:03:50;;;;;;;2.20;1.77;;;30.90;36.10;;;;;;5096780;28;20080;-83
2022/07/24 10:06:21;;;;;;;1.98;1.50;;;30.80;35.50;;;;;;5096606;28;20031;-83
2022/07/24 10:08:48;;;;;;;2.83;1.70;;;30.70;36.20;;;;;;5096791;28;20020;-84
2022/07/24 10:11:15;;;;;;;1.50;1.38;;;30.70;35.90;;;;;;5095634;28;20032;-84
2022/07/24 10:13:41;;;;;;;3.00;1.52;;;30.70;35.30;;;;;;5096211;28;20415;-83
2022/07/24 10:16:13;;;;;;;2.05;1.50;;;30.70;35.40;;;;;;5096876;28;20032;-83
2022/07/24 10:18:54;;;;;;;1.70;1.60;;;30.70;36.20;;;;;;5096162;28;20028;-84
2022/07/24 10:21:29;;;;;;;1.60;1.50;;;30.80;36.20;;;;;;5095809;28;20035;-83
2022/07/24 10:24:07;;;;;;;2.65;1.70;;;31.00;35.70;;;;;;5108656;28;20496;-84
2022/07/24 10:26:40;;;;;;;3.13;1.60;;;31.10;36.20;;;;;;5075573;28;20377;-84
2022/07/24 10:29:11;;;;;;;1.73;1.63;;;31.20;34.90;;;;;;5076194;28;20067;-84
2022/07/24 10:31:43;;;;;;;1.95;1.35;;;31.20;34.30;;;;;;5075668;28;20469;-85
2022/07/24 10:34:26;;;;;;;1.58;1.48;;;31.10;34.80;;;;;;5075921;28;20028;-84
2022/07/24 10:37:11;;;;;;;1.80;1.60;;;30.90;34.70;;;;;;5075688;28;20032;-82
2022/07/24 10:40:00;;;;;;;1.73;1.48;;;30.80;34.60;;;;;;5075884;28;20028;-83
2022/07/24 10:42:26;;;;;;;1.52;1.38;;;30.70;34.90;;;;;;5075777;28;20457;-82
2022/07/24 10:45:13;;;;;;;2.22;1.83;;;30.70;35.20;;;;;;5075997;28;20040;-83
2022/07/24 10:47:39;;;;;;;1.52;1.33;;;30.80;35.20;;;;;;5093038;28;20063;-83
2022/07/24 10:50:05;;;;;;;1.55;1.40;;;30.90;35.30;;;;;;5096672;28;20028;-84
2022/07/24 10:52:40;;;;;;;1.60;1.50;;;31.00;35.00;;;;;;5096009;28;20132;-83
2022/07/24 10:55:33;;;;;;;2.03;1.55;;;31.00;34.60;;;;;;5095644;28;20028;-84
2022/07/24 10:58:09;;;;;;;1.92;1.63;;;31.00;34.20;;;;;;5096475;28;20059;-84
2022/07/24 11:00:38;;;;;;;2.10;1.80;;;30.90;34.30;;;;;;5094636;28;20024;-84
2022/07/24 11:03:24;;;;;;;1.95;1.40;;;30.90;34.40;;;;;;5096131;28;20119;-84
2022/07/24 11:06:10;;;;;;;2.13;1.33;;;30.90;34.30;;;;;;5096267;28;20089;-84
2022/07/24 11:08:48;;;;;;;1.92;1.58;;;30.80;34.60;;;;;;5095763;28;20024;-84
2022/07/24 11:11:14;;;;;;;2.15;1.40;;;30.80;34.90;;;;;;5095988;28;20087;-86
2022/07/24 11:13:45;;;;;;;2.05;1.38;;;30.80;35.00;;;;;;5096006;28;20044;-83
2022/07/24 11:16:10;;;;;;;;;;;30.90;35.50;;;;;;5100302;28;20020;-84
2022/07/24 11:18:52;;;;;;;2.05;1.58;;;31.00;35.30;;;;;;5094741;28;20328;-84
2022/07/24 11:21:38;;;;;;;2.30;1.70;;;31.00;35.20;;;;;;5096450;28;20020;-85
2022/07/24 11:24:16;;;;;;;2.45;1.90;;;31.10;35.70;;;;;;5096169;28;20046;-84
2022/07/24 11:26:57;;;;;;;1.77;1.40;;;31.20;35.10;;;;;;5095788;28;20016;-84
2022/07/24 11:29:23;;;;;;;1.75;1.65;;;31.10;33.70;;;;;;5095561;28;20062;-84
2022/07/24 11:31:53;;;;;;;1.73;1.42;;;31.10;34.30;;;;;;5095635;28;20020;-84
2022/07/24 11:34:19;;;;;;;1.92;1.73;;;31.10;34.70;;;;;;5095966;28;20063;-84
2022/07/24 11:36:47;;;;;;;2.60;1.80;;;31.00;34.70;;;;;;5095204;28;20060;-84
2022/07/24 11:39:14;;;;;;;1.83;1.67;;;31.00;34.00;;;;;;5095588;28;20024;-83
2022/07/24 11:41:47;;;;;;;1.55;1.40;;;31.00;34.50;;;;;;5095514;28;20028;-85
2022/07/24 11:44:14;;;;;;;2.08;1.58;;;31.10;34.70;;;;;;5095725;28;20039;-84
2022/07/24 11:46:41;;;;;;;2.30;1.52;;;31.10;34.30;;;;;;5095250;28;20102;-83
2022/07/24 11:49:09;;;;;;;1.63;1.52;;;31.20;35.20;;;;;;5096771;28;20020;-84
2022/07/24 11:51:50;;;;;;;2.50;1.83;;;31.20;35.30;;;;;;5094968;28;20027;-83
2022/07/24 11:54:24;;;;;;;1.88;1.55;;;31.20;34.30;;;;;;5094374;28;20084;-84
2022/07/24 11:56:51;;;;;;;1.50;1.40;;;31.20;34.20;;;;;;5095258;28;20032;-84
2022/07/24 11:59:30;;;;;;;2.08;1.63;;;31.20;34.50;;;;;;5095148;28;20126;-84
2022/07/24 12:02:06;;;;;;;2.05;1.35;;;31.20;34.70;;;;;;5095358;28;20050;-83
2022/07/24 12:04:33;;;;;;;1.90;1.77;;;31.10;34.80;;;;;;5094478;28;20537;-83
2022/07/24 12:06:59;;;;;;;2.35;1.60;;;31.10;35.00;;;;;;5094124;28;20020;-83
2022/07/24 12:09:25;;;;;;;1.70;1.40;;;31.10;34.60;;;;;;5094864;28;20032;-83
2022/07/24 12:11:51;;;;;;;2.60;2.03;;;31.00;34.80;;;;;;5094767;28;20050;-83
2022/07/24 12:14:19;;;;;;;3.50;1.60;;;31.10;35.20;;;;;;5094363;28;20020;-83
2022/07/24 12:16:53;;;;;;;1.88;1.70;;;31.00;34.90;;;;;;5092505;28;20044;-83
2022/07/24 12:19:22;;;;;;;2.20;1.83;;;31.00;35.10;;;;;;5093895;28;20028;-84
2022/07/24 12:21:50;;;;;;;2.28;1.65;;;31.10;35.10;;;;;;5093814;28;20432;-82
2022/07/24 12:24:16;;;;;;;2.17;1.58;;;31.00;35.10;;;;;;5094193;28;20057;-83
2022/07/24 12:26:52;;;;;;;1.85;1.50;;;31.10;35.20;;;;;;5092425;28;20048;-82
2022/07/24 12:29:18;;;;;;;2.13;1.92;;;31.00;34.90;;;;;;5093828;28;20520;-83
2022/07/24 12:31:44;;;;;;;2.72;1.83;;;31.10;35.70;;;;;;5093560;28;20035;-84
2022/07/24 12:34:10;;;;;;;1.80;1.60;;;31.10;35.70;;;;;;5093802;28;20032;-84
2022/07/24 12:36:37;;;;;;;1.45;1.35;;;31.10;35.50;;;;;;5093589;28;20070;-83
2022/07/24 12:39:04;;;;;;;1.38;1.27;;;31.00;35.50;;;;;;5094165;28;20380;-83
2022/07/24 12:41:30;;;;;;;2.33;1.73;;;31.10;36.20;;;;;;5094154;28;20027;-82
2022/07/24 12:43:56;;;;;;;2.65;1.90;;;31.10;35.40;;;;;;5092579;28;20036;-82
2022/07/24 12:46:31;;;;;;;2.00;1.77;;;31.10;35.60;;;;;;5093836;28;20096;-83
2022/07/24 12:49:07;;;;;;;2.47;2.00;;;31.10;35.50;;;;;;5093922;28;20579;-84